createdAt,value
2018-06-21T00:01:28.823Z,257.10
2018-06-21T00:03:56.036Z,261.50
2018-06-21T00:06:23.261Z,303.47
2018-06-21T00:08:50.513Z,259.87
2018-06-21T00:11:17.741Z,268.20
2018-06-21T00:13:44.954Z,288.80
2018-06-21T00:16:12.183Z,295.17
2018-06-21T00:18:39.420Z,281.33
2018-06-21T00:21:06.653Z,262.50
2018-06-21T00:23:33.885Z,283.67
2018-06-21T00:26:01.120Z,277.53
2018-06-21T00:28:28.360Z,261.17
2018-06-21T00:30:55.590Z,254.00
2018-06-21T00:33:22.808Z,258.73
2018-06-21T00:35:50.028Z,270.10
2018-06-21T00:38:17.242Z,288.17
2018-06-21T00:40:44.453Z,257.23
2018-06-21T00:43:11.689Z,272.30
2018-06-21T00:45:38.908Z,264.17
2018-06-21T00:48:06.128Z,245.97
2018-06-21T00:50:33.355Z,270.87
2018-06-21T00:53:00.596Z,268.63
2018-06-21T00:55:39.292Z,267.93
2018-06-21T00:58:06.577Z,262.47
2018-06-21T01:00:33.794Z,275.17
2018-06-21T01:03:01.025Z,246.73
2018-06-21T01:05:28.253Z,267.07
2018-06-21T01:07:55.483Z,251.77
2018-06-21T01:10:22.705Z,266.83
2018-06-21T01:12:49.929Z,249.10
2018-06-21T01:15:17.161Z,256.43
2018-06-21T01:17:44.390Z,251.07
2018-06-21T01:20:11.626Z,251.20
2018-06-21T01:22:38.882Z,251.73
2018-06-21T01:25:06.118Z,256.10
2018-06-21T01:27:33.340Z,257.90
2018-06-21T01:30:00.561Z,248.47
2018-06-21T01:32:27.799Z,236.53
2018-06-21T01:34:55.028Z,235.20
2018-06-21T01:37:22.244Z,245.90
2018-06-21T01:39:49.465Z,244.67
2018-06-21T01:42:16.714Z,248.00
2018-06-21T01:44:43.928Z,249.37
2018-06-21T01:47:11.156Z,236.70
2018-06-21T01:49:38.386Z,259.70
2018-06-21T01:52:05.655Z,246.73
2018-06-21T01:54:32.889Z,249.37
2018-06-21T01:57:00.101Z,259.47
2018-06-21T01:59:27.317Z,239.70
2018-06-21T02:01:54.505Z,227.47
2018-06-21T02:04:21.740Z,265.00
2018-06-21T02:06:48.946Z,239.37
2018-06-21T02:09:16.177Z,258.27
2018-06-21T02:11:43.373Z,261.77
2018-06-21T02:14:10.570Z,247.43
2018-06-21T02:16:37.776Z,238.27
2018-06-21T02:19:04.986Z,252.07
2018-06-21T02:21:32.190Z,251.23
2018-06-21T02:23:59.403Z,242.73
2018-06-21T02:26:26.645Z,228.10
2018-06-21T02:28:53.868Z,244.83
2018-06-21T02:31:21.055Z,246.77
2018-06-21T02:33:48.269Z,227.83
2018-06-21T02:36:15.471Z,243.77
2018-06-21T02:38:42.686Z,247.13
2018-06-21T02:41:09.889Z,234.07
2018-06-21T02:43:37.108Z,224.43
2018-06-21T02:46:04.541Z,240.90
2018-06-21T02:48:31.734Z,229.63
2018-06-21T02:50:58.950Z,219.47
2018-06-21T02:53:26.165Z,217.20
2018-06-21T02:55:53.378Z,237.90
2018-06-21T02:58:20.581Z,227.67
2018-06-21T03:00:47.827Z,233.73
2018-06-21T03:03:15.017Z,226.70
2018-06-21T03:05:42.259Z,222.87
2018-06-21T03:08:09.445Z,237.53
2018-06-21T03:10:36.657Z,231.27
2018-06-21T03:13:05.219Z,217.50
2018-06-21T03:15:32.426Z,245.37
2018-06-21T03:17:59.633Z,227.53
2018-06-21T03:20:26.877Z,220.97
2018-06-21T03:22:54.111Z,215.43
2018-06-21T03:25:21.368Z,226.47
2018-06-21T03:27:48.696Z,234.13
2018-06-21T03:30:21.621Z,219.97
2018-06-21T03:32:48.994Z,220.90
2018-06-21T03:35:18.672Z,221.83
2018-06-21T03:37:45.872Z,220.60
2018-06-21T03:40:13.069Z,226.87
2018-06-21T03:42:40.329Z,221.63
2018-06-21T03:45:07.553Z,222.20
2018-06-21T03:47:34.749Z,218.40
2018-06-21T03:50:01.947Z,216.43
2018-06-21T03:52:29.231Z,213.77
2018-06-21T03:54:56.440Z,210.77
2018-06-21T03:57:23.648Z,235.50
2018-06-21T03:59:50.845Z,222.77
2018-06-21T04:02:18.073Z,215.37
2018-06-21T04:04:45.283Z,214.70
2018-06-21T04:07:12.482Z,223.13
2018-06-21T04:09:39.675Z,234.13
2018-06-21T04:12:06.877Z,220.67
2018-06-21T04:14:34.059Z,223.90
2018-06-21T04:17:01.351Z,232.50
2018-06-21T04:19:28.589Z,216.50
2018-06-21T04:21:55.792Z,212.17
2018-06-21T04:24:22.985Z,224.53
2018-06-21T04:26:50.185Z,230.90
2018-06-21T04:29:17.407Z,212.17
2018-06-21T04:31:44.615Z,230.97
2018-06-21T04:34:11.853Z,217.80
2018-06-21T04:36:39.065Z,228.87
2018-06-21T04:39:06.790Z,216.37
2018-06-21T04:41:34.053Z,227.80
2018-06-21T04:44:01.259Z,221.03
2018-06-21T04:46:28.450Z,229.67
2018-06-21T04:48:55.644Z,231.83
2018-06-21T04:51:22.832Z,224.33
2018-06-21T04:53:50.026Z,216.77
2018-06-21T04:56:17.213Z,248.00
2018-06-21T04:58:44.404Z,221.30
2018-06-21T05:01:11.960Z,211.73
2018-06-21T05:03:39.154Z,230.53
2018-06-21T05:06:06.344Z,223.67
2018-06-21T05:08:33.538Z,236.63
2018-06-21T05:11:00.729Z,234.37
2018-06-21T05:13:27.944Z,245.20
2018-06-21T05:15:55.348Z,238.03
2018-06-21T05:18:22.609Z,242.37
2018-06-21T05:20:49.777Z,239.13
2018-06-21T05:23:16.997Z,251.10
2018-06-21T05:25:44.190Z,252.23
2018-06-21T05:28:11.406Z,259.27
2018-06-21T05:30:38.590Z,247.73
2018-06-21T05:33:06.072Z,270.37
2018-06-21T05:35:33.360Z,261.93
2018-06-21T05:38:00.576Z,264.13
2018-06-21T05:40:32.800Z,288.93
2018-06-21T05:43:00.892Z,280.57
2018-06-21T05:45:28.106Z,271.40
2018-06-21T05:47:55.948Z,278.57
2018-06-21T05:50:23.138Z,280.30
2018-06-21T05:52:50.462Z,284.97
2018-06-21T05:55:17.669Z,283.90
2018-06-21T05:57:44.849Z,262.03
2018-06-21T06:00:12.162Z,287.57
2018-06-21T06:02:39.720Z,292.70
2018-06-21T06:05:06.923Z,280.73
2018-06-21T06:07:34.115Z,279.93
2018-06-21T06:10:01.381Z,277.47
2018-06-21T06:12:30.732Z,286.97
2018-06-21T06:14:57.931Z,259.03
2018-06-21T06:17:25.126Z,271.07
2018-06-21T06:19:52.317Z,262.97
2018-06-21T06:22:20.498Z,293.10
2018-06-21T06:24:47.694Z,292.57
2018-06-21T06:27:14.885Z,257.00
2018-06-21T06:29:42.080Z,271.30
2018-06-21T06:32:09.264Z,282.70
2018-06-21T06:34:36.477Z,266.73
2018-06-21T06:37:03.709Z,286.07
2018-06-21T06:39:30.929Z,266.63
2018-06-21T06:41:58.121Z,271.53
2018-06-21T06:44:25.317Z,268.80
2018-06-21T06:46:52.509Z,295.50
2018-06-21T06:49:19.709Z,299.37
2018-06-21T06:51:46.918Z,302.90
2018-06-21T06:54:14.155Z,362.10
2018-06-21T06:56:41.357Z,366.53
2018-06-21T06:59:08.562Z,412.20
2018-06-21T07:01:35.757Z,433.43
2018-06-21T07:04:03.073Z,467.33
2018-06-21T07:06:30.269Z,515.97
2018-06-21T07:08:58.008Z,558.13
2018-06-21T07:11:26.105Z,580.97
2018-06-21T07:13:53.296Z,596.67
2018-06-21T07:16:20.493Z,623.53
2018-06-21T07:18:47.697Z,631.90
2018-06-21T07:21:14.897Z,671.47
2018-06-21T07:23:42.316Z,666.60
2018-06-21T07:26:09.509Z,692.43
2018-06-21T07:28:36.706Z,694.93
2018-06-21T07:31:03.912Z,711.27
2018-06-21T07:33:31.147Z,709.63
2018-06-21T07:35:58.350Z,717.73
2018-06-21T07:38:25.537Z,736.70
2018-06-21T07:40:52.726Z,728.20
2018-06-21T07:43:19.942Z,718.90
2018-06-21T07:45:47.144Z,721.03
2018-06-21T07:48:14.349Z,777.77
2018-06-21T07:50:41.548Z,759.67
2018-06-21T07:53:08.989Z,765.50
2018-06-21T07:55:36.177Z,763.30
2018-06-21T07:58:03.396Z,734.73
2018-06-21T08:00:30.589Z,749.07
2018-06-21T08:02:57.780Z,764.90
2018-06-21T08:05:25.035Z,728.90
2018-06-21T08:07:52.226Z,735.80
2018-06-21T08:10:19.420Z,732.43
2018-06-21T08:12:46.620Z,702.73
2018-06-21T08:15:13.824Z,753.63
2018-06-21T08:17:41.052Z,740.10
2018-06-21T08:20:08.305Z,712.60
2018-06-21T08:22:35.497Z,724.80
2018-06-21T08:25:02.754Z,729.90
2018-06-21T08:27:29.965Z,735.70
2018-06-21T08:29:57.166Z,754.73
2018-06-21T08:32:24.370Z,742.47
2018-06-21T08:34:51.556Z,742.60
2018-06-21T08:37:18.749Z,756.30
2018-06-21T08:39:46.444Z,794.47
2018-06-21T08:42:13.628Z,769.73
2018-06-21T08:44:40.832Z,794.77
2018-06-21T08:47:08.026Z,799.20
2018-06-21T08:49:35.252Z,792.43
2018-06-21T08:52:02.489Z,766.73
2018-06-21T08:54:29.776Z,754.20
2018-06-21T08:56:57.013Z,768.00
2018-06-21T08:59:24.222Z,750.40
2018-06-21T09:01:51.411Z,733.83
2018-06-21T09:04:18.609Z,754.07
2018-06-21T09:06:45.794Z,755.40
2018-06-21T09:09:13.008Z,742.93
2018-06-21T09:11:40.190Z,758.03
2018-06-21T09:14:07.410Z,781.97
2018-06-21T09:16:34.618Z,801.63
2018-06-21T09:19:01.814Z,754.70
2018-06-21T09:21:29.008Z,741.80
2018-06-21T09:23:56.201Z,768.27
2018-06-21T09:26:23.405Z,767.10
2018-06-21T09:28:50.601Z,784.40
2018-06-21T09:31:17.800Z,790.10
2018-06-21T09:33:44.996Z,787.37
2018-06-21T09:36:12.193Z,775.10
2018-06-21T09:38:45.145Z,757.67
2018-06-21T09:41:18.097Z,788.27
2018-06-21T09:44:03.824Z,765.13
2018-06-21T09:46:33.874Z,734.30
2018-06-21T09:48:52.050Z,727.80
2018-06-21T09:51:19.708Z,703.20
2018-06-21T09:53:46.921Z,701.13
2018-06-21T09:56:14.233Z,678.30
2018-06-21T09:58:41.421Z,635.30
2018-06-21T10:01:08.629Z,616.40
2018-06-21T10:03:35.825Z,639.90
2018-06-21T10:06:03.041Z,655.43
2018-06-21T10:08:30.233Z,627.80
2018-06-21T10:10:57.419Z,674.00
2018-06-21T10:13:24.783Z,665.13
2018-06-21T10:15:52.160Z,664.73
2018-06-21T10:18:19.389Z,652.33
2018-06-21T10:20:46.610Z,655.70
2018-06-21T10:23:13.942Z,665.00
2018-06-21T10:25:41.148Z,596.67
2018-06-21T10:28:08.334Z,600.53
2018-06-21T10:30:35.562Z,627.90
2018-06-21T10:33:02.750Z,642.33
2018-06-21T10:35:29.946Z,664.43
2018-06-21T10:37:57.137Z,658.73
2018-06-21T10:40:24.340Z,718.53
2018-06-21T10:42:51.550Z,738.60
2018-06-21T10:45:18.757Z,727.87
2018-06-21T10:47:45.971Z,760.87
2018-06-21T10:50:13.184Z,748.23
2018-06-21T10:52:40.370Z,707.53
2018-06-21T10:55:07.560Z,691.40
2018-06-21T10:57:34.771Z,701.00
2018-06-21T11:00:01.969Z,736.10
2018-06-21T11:02:29.186Z,698.63
2018-06-21T11:04:56.376Z,682.30
2018-06-21T11:07:23.570Z,679.93
2018-06-21T11:09:50.948Z,671.73
2018-06-21T11:12:18.133Z,646.20
2018-06-21T11:14:45.324Z,652.00
2018-06-21T11:17:12.534Z,649.07
2018-06-21T11:19:39.728Z,660.67
2018-06-21T11:22:06.934Z,677.63
2018-06-21T11:24:34.117Z,686.23
2018-06-21T11:27:01.301Z,687.30
2018-06-21T11:29:28.521Z,686.87
2018-06-21T11:31:55.733Z,683.17
2018-06-21T11:34:23.049Z,686.37
2018-06-21T11:36:50.234Z,680.23
2018-06-21T11:39:17.452Z,736.87
2018-06-21T11:41:44.669Z,731.70
2018-06-21T11:44:11.859Z,777.93
2018-06-21T11:46:39.125Z,755.37
2018-06-21T11:49:06.373Z,748.03
2018-06-21T11:51:33.553Z,735.60
2018-06-21T11:54:00.836Z,761.57
2018-06-21T11:56:28.022Z,764.30
2018-06-21T11:58:55.229Z,737.10
2018-06-21T12:01:22.449Z,739.30
2018-06-21T12:03:49.657Z,713.33
2018-06-21T12:06:16.852Z,738.37
2018-06-21T12:08:44.061Z,724.50
2018-06-21T12:11:11.261Z,734.17
2018-06-21T12:13:38.556Z,730.77
2018-06-21T12:16:05.759Z,704.63
2018-06-21T12:18:32.957Z,701.63
2018-06-21T12:21:00.152Z,675.23
2018-06-21T12:23:27.347Z,676.53
2018-06-21T12:25:54.543Z,598.03
2018-06-21T12:28:21.765Z,572.60
2018-06-21T12:30:48.952Z,602.53
2018-06-21T12:33:16.137Z,612.97
2018-06-21T12:35:43.429Z,592.50
2018-06-21T12:38:10.638Z,604.30
2018-06-21T12:40:37.832Z,675.33
2018-06-21T12:43:05.052Z,651.13
2018-06-21T12:45:32.241Z,663.13
2018-06-21T12:47:59.426Z,674.23
2018-06-21T12:50:26.630Z,697.83
2018-06-21T12:52:53.817Z,701.50
2018-06-21T12:55:21.079Z,720.57
2018-06-21T12:57:48.294Z,712.63
2018-06-21T13:00:15.725Z,747.13
2018-06-21T13:02:42.929Z,716.80
2018-06-21T13:05:10.157Z,774.47
2018-06-21T13:07:37.354Z,725.40
2018-06-21T13:10:16.355Z,705.67
2018-06-21T13:13:01.068Z,708.03
2018-06-21T13:15:28.290Z,689.30
2018-06-21T13:17:55.465Z,675.90
2018-06-21T13:20:22.669Z,603.10
2018-06-21T13:22:49.869Z,593.73
2018-06-21T13:25:17.078Z,586.67
2018-06-21T13:27:44.268Z,597.20
2018-06-21T13:30:11.504Z,607.37
2018-06-21T13:32:38.694Z,596.70
2018-06-21T13:35:06.366Z,613.77
2018-06-21T13:37:33.566Z,570.57
2018-06-21T13:40:00.787Z,617.40
2018-06-21T13:42:28.496Z,558.00
2018-06-21T13:44:55.692Z,571.73
2018-06-21T13:47:22.888Z,569.10
2018-06-21T13:49:50.124Z,574.67
2018-06-21T13:52:17.339Z,559.50
2018-06-21T13:54:44.562Z,583.13
2018-06-21T13:57:11.750Z,562.63
2018-06-21T13:59:38.998Z,556.23
2018-06-21T14:02:06.388Z,565.60
2018-06-21T14:04:33.577Z,541.77
2018-06-21T14:07:00.791Z,526.70
2018-06-21T14:09:27.980Z,515.63
2018-06-21T14:11:55.191Z,522.80
2018-06-21T14:14:22.716Z,510.17
2018-06-21T14:16:49.924Z,470.13
2018-06-21T14:19:17.202Z,492.13
2018-06-21T14:21:44.378Z,474.90
2018-06-21T14:24:12.704Z,521.27
2018-06-21T14:26:40.282Z,484.67
2018-06-21T14:29:07.505Z,468.27
2018-06-21T14:31:34.733Z,457.90
2018-06-21T14:34:01.913Z,468.27
2018-06-21T14:36:29.438Z,434.77
2018-06-21T14:38:56.936Z,442.27
2018-06-21T14:41:24.381Z,439.03
2018-06-21T14:43:51.574Z,386.87
2018-06-21T14:46:18.761Z,381.03
2018-06-21T14:48:46.012Z,416.23
2018-06-21T14:51:13.193Z,411.40
2018-06-21T14:53:40.395Z,441.57
2018-06-21T14:56:07.621Z,465.10
2018-06-21T14:58:34.817Z,512.60
2018-06-21T15:01:02.027Z,536.47
2018-06-21T15:03:29.357Z,538.87
2018-06-21T15:05:56.553Z,549.03
2018-06-21T15:08:23.753Z,534.50
2018-06-21T15:10:50.954Z,565.87
2018-06-21T15:13:18.150Z,561.97
2018-06-21T15:15:45.348Z,557.63
2018-06-21T15:18:12.559Z,541.17
2018-06-21T15:20:39.751Z,547.70
2018-06-21T15:23:06.982Z,575.93
2018-06-21T15:25:34.202Z,560.77
2018-06-21T15:28:01.600Z,528.97
2018-06-21T15:30:28.814Z,541.63
2018-06-21T15:32:56.018Z,526.23
2018-06-21T15:35:23.214Z,487.63
2018-06-21T15:37:50.541Z,486.93
2018-06-21T15:40:17.912Z,465.97
2018-06-21T15:42:45.109Z,462.33
2018-06-21T15:45:12.449Z,431.67
2018-06-21T15:47:39.645Z,471.37
2018-06-21T15:50:06.906Z,399.03
2018-06-21T15:52:34.097Z,447.73
2018-06-21T15:55:01.301Z,443.63
2018-06-21T15:57:28.561Z,397.03
2018-06-21T15:59:55.745Z,433.30
2018-06-21T16:02:22.945Z,424.73
2018-06-21T16:04:50.205Z,414.83
2018-06-21T16:07:17.404Z,392.80
2018-06-21T16:09:44.614Z,385.33
2018-06-21T16:12:11.824Z,378.83
2018-06-21T16:14:39.025Z,357.83
2018-06-21T16:17:06.336Z,356.80
2018-06-21T16:19:33.583Z,329.27
2018-06-21T16:22:00.941Z,328.67
2018-06-21T16:24:28.149Z,331.10
2018-06-21T16:26:55.340Z,330.03
2018-06-21T16:29:22.539Z,304.30
2018-06-21T16:31:49.746Z,318.57
2018-06-21T16:34:17.092Z,299.47
2018-06-21T16:36:44.507Z,342.33
2018-06-21T16:39:11.756Z,322.10
2018-06-21T16:41:39.359Z,315.43
2018-06-21T16:44:06.509Z,308.93
2018-06-21T16:46:33.889Z,298.60
2018-06-21T16:49:01.098Z,280.57
2018-06-21T16:51:28.683Z,279.30
2018-06-21T16:53:55.888Z,259.60
2018-06-21T16:56:23.474Z,257.37
2018-06-21T16:58:50.672Z,287.33
2018-06-21T17:01:17.941Z,265.67
2018-06-21T17:03:45.150Z,258.33
2018-06-21T17:06:12.417Z,249.57
2018-06-21T17:08:39.640Z,241.53
2018-06-21T17:11:06.892Z,249.80
2018-06-21T17:13:34.109Z,261.30
2018-06-21T17:16:01.378Z,251.77
2018-06-21T17:18:29.505Z,250.70
2018-06-21T17:20:56.705Z,236.03
2018-06-21T17:23:23.916Z,237.67
2018-06-21T17:25:51.166Z,255.53
2018-06-21T17:28:18.389Z,222.17
2018-06-21T17:30:45.735Z,226.27
2018-06-21T17:33:12.992Z,233.93
2018-06-21T17:35:40.221Z,227.07
2018-06-21T17:38:07.443Z,232.70
2018-06-21T17:40:34.739Z,249.00
2018-06-21T17:43:01.952Z,245.73
2018-06-21T17:45:29.358Z,268.40
2018-06-21T17:47:56.568Z,250.07
2018-06-21T17:50:23.801Z,256.90
2018-06-21T17:52:51.240Z,273.90
2018-06-21T17:55:18.443Z,261.00
2018-06-21T17:57:45.746Z,249.83
2018-06-21T18:00:12.976Z,258.23
2018-06-21T18:02:40.428Z,264.27
2018-06-21T18:05:07.730Z,268.07
2018-06-21T18:07:35.021Z,237.07
2018-06-21T18:10:02.342Z,240.47
2018-06-21T18:12:29.556Z,234.80
2018-06-21T18:14:56.874Z,212.47
2018-06-21T18:17:24.173Z,222.33
2018-06-21T18:19:51.444Z,237.90
2018-06-21T18:22:18.712Z,218.63
2018-06-21T18:24:45.930Z,195.23
2018-06-21T18:27:13.197Z,202.63
2018-06-21T18:29:40.600Z,193.67
2018-06-21T18:32:07.853Z,186.37
2018-06-21T18:34:35.065Z,205.03
2018-06-21T18:37:02.328Z,191.43
2018-06-21T18:39:29.585Z,177.00
2018-06-21T18:41:56.813Z,189.33
2018-06-21T18:44:24.042Z,182.93
2018-06-21T18:46:51.286Z,180.90
2018-06-21T18:49:18.506Z,157.47
2018-06-21T18:51:45.729Z,178.77
2018-06-21T18:54:12.940Z,172.80
2018-06-21T18:56:40.373Z,173.93
2018-06-21T18:59:07.609Z,167.00
2018-06-21T19:01:35.003Z,172.43
2018-06-21T19:04:02.259Z,165.13
2018-06-21T19:06:35.373Z,170.43
2018-06-21T19:09:08.476Z,173.83
2018-06-21T19:11:41.583Z,167.30
2018-06-21T19:14:08.859Z,167.97
2018-06-21T19:16:36.087Z,172.47
2018-06-21T19:19:03.307Z,172.40
2018-06-21T19:21:30.552Z,166.90
2018-06-21T19:23:57.757Z,165.80
2018-06-21T19:26:25.192Z,173.00
2018-06-21T19:28:52.410Z,162.53
2018-06-21T19:31:19.658Z,164.93
2018-06-21T19:33:46.859Z,162.10
2018-06-21T19:36:14.120Z,173.20
2018-06-21T19:38:41.325Z,158.63
2018-06-21T19:41:08.540Z,174.70
2018-06-21T19:43:35.754Z,171.47
2018-06-21T19:46:02.968Z,156.00
2018-06-21T19:48:30.172Z,160.17
2018-06-21T19:50:57.393Z,171.63
2018-06-21T19:53:24.587Z,168.73
2018-06-21T19:55:51.792Z,150.53
2018-06-21T19:58:18.998Z,155.27
2018-06-21T20:00:46.202Z,153.63
2018-06-21T20:03:13.431Z,144.37
2018-06-21T20:05:40.707Z,164.73
2018-06-21T20:08:21.629Z,151.20
2018-06-21T20:10:53.421Z,153.90
2018-06-21T20:13:20.630Z,149.57
2018-06-21T20:15:53.007Z,146.00
2018-06-21T20:18:21.147Z,147.03
2018-06-21T20:20:48.420Z,153.60
2018-06-21T20:23:16.035Z,147.00
2018-06-21T20:25:43.216Z,148.33
2018-06-21T20:28:10.570Z,150.93
2018-06-21T20:30:37.765Z,148.40
2018-06-21T20:33:05.300Z,149.47
2018-06-21T20:35:32.501Z,142.47
2018-06-21T20:37:59.697Z,139.03
2018-06-21T20:40:26.921Z,143.53
2018-06-21T20:42:54.125Z,141.67
2018-06-21T20:45:21.321Z,156.57
2018-06-21T20:47:48.528Z,142.77
2018-06-21T20:50:15.725Z,149.40
2018-06-21T20:52:42.930Z,140.40
2018-06-21T20:55:10.134Z,138.73
2018-06-21T20:57:37.422Z,143.97
2018-06-21T21:00:04.633Z,131.27
2018-06-21T21:02:31.842Z,133.23
2018-06-21T21:05:09.374Z,131.13
2018-06-21T21:07:36.631Z,123.40
2018-06-21T21:10:05.743Z,130.87
2018-06-21T21:12:32.924Z,132.23
2018-06-21T21:15:00.264Z,130.87
2018-06-21T21:17:27.473Z,125.37
2018-06-21T21:19:54.668Z,126.07
2018-06-21T21:22:21.857Z,120.73
2018-06-21T21:24:49.589Z,114.13
2018-06-21T21:27:16.795Z,120.63
2018-06-21T21:29:43.998Z,117.73
2018-06-21T21:32:11.193Z,125.23
2018-06-21T21:34:38.397Z,112.67
2018-06-21T21:37:05.593Z,113.00
2018-06-21T21:39:32.892Z,113.50
2018-06-21T21:42:00.054Z,116.07
2018-06-21T21:44:27.256Z,115.53
2018-06-21T21:46:54.457Z,114.57
2018-06-21T21:49:21.654Z,119.23
2018-06-21T21:51:48.866Z,110.67
2018-06-21T21:54:16.068Z,109.40
2018-06-21T21:56:43.266Z,114.40
2018-06-21T21:59:10.456Z,114.13
2018-06-21T22:01:37.654Z,117.10
2018-06-21T22:04:04.895Z,108.33
2018-06-21T22:06:32.081Z,111.27
2018-06-21T22:08:59.280Z,110.87
2018-06-21T22:11:26.472Z,108.50
2018-06-21T22:13:59.530Z,110.83
2018-06-21T22:16:26.723Z,106.73
2018-06-21T22:18:53.938Z,105.77
2018-06-21T22:21:21.137Z,111.40
2018-06-21T22:23:48.336Z,105.90
2018-06-21T22:26:15.543Z,104.13
2018-06-21T22:28:42.741Z,103.57
2018-06-21T22:31:09.933Z,104.40
2018-06-21T22:33:37.133Z,106.63
2018-06-21T22:36:04.436Z,100.87
2018-06-21T22:38:31.629Z,106.27
2018-06-21T22:40:58.828Z,107.77
2018-06-21T22:43:26.049Z,107.10
2018-06-21T22:45:53.253Z,100.53
2018-06-21T22:48:20.441Z,101.13
2018-06-21T22:50:47.669Z,100.00
2018-06-21T22:53:14.852Z,100.80
2018-06-21T22:55:42.049Z,99.03
2018-06-21T22:58:09.244Z,100.17
2018-06-21T23:00:36.449Z,102.77
2018-06-21T23:03:03.707Z,101.60
2018-06-21T23:05:30.956Z,100.67
2018-06-21T23:07:58.109Z,101.70
2018-06-21T23:10:25.333Z,100.17
2018-06-21T23:12:52.549Z,99.93
2018-06-21T23:15:19.766Z,98.20
2018-06-21T23:17:46.956Z,99.63
2018-06-21T23:20:14.176Z,97.10
2018-06-21T23:22:41.372Z,97.87
2018-06-21T23:25:08.575Z,96.67
2018-06-21T23:27:35.752Z,98.77
2018-06-21T23:30:03.286Z,95.80
2018-06-21T23:32:30.508Z,95.17
2018-06-21T23:34:57.705Z,92.80
2018-06-21T23:37:24.909Z,96.33
2018-06-21T23:39:52.107Z,98.00
2018-06-21T23:42:19.312Z,96.77
2018-06-21T23:44:46.596Z,95.67
2018-06-21T23:47:13.880Z,94.93
2018-06-21T23:49:41.085Z,95.40
2018-06-21T23:52:08.273Z,93.67
2018-06-21T23:54:35.476Z,95.00
2018-06-21T23:57:02.707Z,92.30
2018-06-21T23:59:29.904Z,91.77
